Massena, New York
Current Conditions -  °F | °C
As of 5:53 PM on Wednesday 26 Nov 2014 (Local Time) from KMSS Reporting Station
Overcast Overcast  
Wind Chill: -4°   Ceiling: 8000
Heat Index: -1°   Visibility: 10mi
Dew Point: -6°   Wind: 6mph
Humidity: 67%   Direction: 30°NNE
Pressure: 30.15"   Gusts: NA
Location:  44.93°N, 74.89°W
Report Text: KMSS 262253Z AUTO 03005KT 10SM OVC080 M01/M06 A3015 RMK AO2 SLP217 T10061061
Loading
Personal Weather Stations






























Interactive Weather Map New forecast layout! Learn more

10-Day Weather Forecast

Advertisements
Track Severe Weather on mobile